sensor_id;sensor_type;location;lat;lon;timestamp;pressure;altitude;pressure_sealevel;temperature;humidity
41140;BME280;26881;48.784;9.192;2023-04-08T00:00:37;98848.53;;;9.43;85.16
41140;BME280;26881;48.784;9.192;2023-04-08T00:05:59;98853.31;;;9.52;85.38
41140;BME280;26881;48.784;9.192;2023-04-08T00:11:23;98860.66;;;9.44;85.20
41140;BME280;26881;48.784;9.192;2023-04-08T00:16:44;98859.00;;;9.43;84.84
41140;BME280;26881;48.784;9.192;2023-04-08T00:22:06;98856.44;;;9.41;85.82
41140;BME280;26881;48.784;9.192;2023-04-08T00:27:28;98850.63;;;9.54;84.89
41140;BME280;26881;48.784;9.192;2023-04-08T00:32:50;98861.38;;;9.47;84.40
41140;BME280;26881;48.784;9.192;2023-04-08T00:38:12;98862.38;;;9.45;84.66
41140;BME280;26881;48.784;9.192;2023-04-08T00:43:34;98865.22;;;9.40;84.65
41140;BME280;26881;48.784;9.192;2023-04-08T00:48:55;98871.66;;;9.33;85.13
41140;BME280;26881;48.784;9.192;2023-04-08T00:54:17;98875.09;;;9.34;85.88
41140;BME280;26881;48.784;9.192;2023-04-08T00:59:40;98875.03;;;9.35;85.33
41140;BME280;26881;48.784;9.192;2023-04-08T01:10:47;98870.44;;;9.40;84.92
41140;BME280;26881;48.784;9.192;2023-04-08T01:16:13;98871.81;;;9.30;84.75
41140;BME280;26881;48.784;9.192;2023-04-08T01:21:36;98868.34;;;9.29;84.82
41140;BME280;26881;48.784;9.192;2023-04-08T01:26:59;98870.63;;;9.18;84.68
41140;BME280;26881;48.784;9.192;2023-04-08T01:32:23;98871.72;;;9.32;84.94
41140;BME280;26881;48.784;9.192;2023-04-08T01:37:48;98877.72;;;9.16;85.50
41140;BME280;26881;48.784;9.192;2023-04-08T01:43:13;98874.38;;;9.13;85.77
41140;BME280;26881;48.784;9.192;2023-04-08T01:48:37;98868.09;;;9.17;84.58
41140;BME280;26881;48.784;9.192;2023-04-08T01:54:00;98870.56;;;9.20;84.31
41140;BME280;26881;48.784;9.192;2023-04-08T01:59:23;98872.06;;;9.06;85.01
41140;BME280;26881;48.784;9.192;2023-04-08T02:04:49;98871.72;;;9.14;84.68
41140;BME280;26881;48.784;9.192;2023-04-08T02:10:11;98876.81;;;8.98;86.04
41140;BME280;26881;48.784;9.192;2023-04-08T02:15:33;98872.22;;;9.03;85.33
41140;BME280;26881;48.784;9.192;2023-04-08T02:21:18;98870.16;;;9.10;85.81
41140;BME280;26881;48.784;9.192;2023-04-08T02:26:43;98870.63;;;9.18;85.42
41140;BME280;26881;48.784;9.192;2023-04-08T02:32:07;98879.44;;;9.16;85.36
41140;BME280;26881;48.784;9.192;2023-04-08T02:37:31;98880.97;;;9.02;86.26
41140;BME280;26881;48.784;9.192;2023-04-08T02:42:54;98878.22;;;9.05;86.17
41140;BME280;26881;48.784;9.192;2023-04-08T02:48:16;98872.66;;;8.94;86.14
41140;BME280;26881;48.784;9.192;2023-04-08T02:53:38;98866.09;;;9.04;86.20
41140;BME280;26881;48.784;9.192;2023-04-08T02:58:59;98869.75;;;9.00;86.25
41140;BME280;26881;48.784;9.192;2023-04-08T03:04:21;98877.84;;;9.13;85.29
41140;BME280;26881;48.784;9.192;2023-04-08T03:09:43;98869.66;;;9.02;85.69
41140;BME280;26881;48.784;9.192;2023-04-08T03:15:05;98871.81;;;8.94;86.31
41140;BME280;26881;48.784;9.192;2023-04-08T03:20:27;98876.66;;;9.01;85.84
41140;BME280;26881;48.784;9.192;2023-04-08T03:25:48;98875.75;;;9.02;85.16
41140;BME280;26881;48.784;9.192;2023-04-08T03:31:10;98868.72;;;9.04;84.81
41140;BME280;26881;48.784;9.192;2023-04-08T03:36:32;98868.72;;;9.04;85.13
41140;BME280;26881;48.784;9.192;2023-04-08T03:41:54;98875.75;;;9.02;84.50
41140;BME280;26881;48.784;9.192;2023-04-08T03:47:15;98876.25;;;8.92;85.51
41140;BME280;26881;48.784;9.192;2023-04-08T03:52:37;98878.81;;;8.93;84.88
41140;BME280;26881;48.784;9.192;2023-04-08T03:57:59;98876.09;;;8.95;84.79
41140;BME280;26881;48.784;9.192;2023-04-08T04:03:20;98878.03;;;8.91;85.08
41140;BME280;26881;48.784;9.192;2023-04-08T04:08:42;98882.63;;;8.86;85.03
41140;BME280;26881;48.784;9.192;2023-04-08T04:14:04;98875.19;;;8.96;84.93
41140;BME280;26881;48.784;9.192;2023-04-08T04:19:29;98879.59;;;8.95;84.83
41140;BME280;26881;48.784;9.192;2023-04-08T04:24:51;98877.44;;;9.03;84.52
41140;BME280;26881;48.784;9.192;2023-04-08T04:30:13;98877.94;;;8.93;84.65
41140;BME280;26881;48.784;9.192;2023-04-08T04:35:38;98882.59;;;8.67;85.55
41140;BME280;26881;48.784;9.192;2023-04-08T04:41:00;98883.75;;;8.61;85.85
41140;BME280;26881;48.784;9.192;2023-04-08T04:46:22;98888.53;;;8.71;86.14
41140;BME280;26881;48.784;9.192;2023-04-08T04:51:44;98890.38;;;8.69;86.17
41140;BME280;26881;48.784;9.192;2023-04-08T04:57:05;98902.63;;;8.67;85.96
41140;BME280;26881;48.784;9.192;2023-04-08T05:02:27;98905.53;;;8.60;86.01
41140;BME280;26881;48.784;9.192;2023-04-08T05:07:49;98914.56;;;8.33;88.09
41140;BME280;26881;48.784;9.192;2023-04-08T05:13:11;98920.06;;;8.06;89.46
41140;BME280;26881;48.784;9.192;2023-04-08T05:18:33;98917.06;;;8.34;88.54
41140;BME280;26881;48.784;9.192;2023-04-08T05:23:55;98932.44;;;8.01;89.41
41140;BME280;26881;48.784;9.192;2023-04-08T05:29:17;98931.53;;;7.81;90.99
41140;BME280;26881;48.784;9.192;2023-04-08T05:34:39;98933.47;;;7.97;91.15
41140;BME280;26881;48.784;9.192;2023-04-08T05:40:01;98941.41;;;8.14;90.19
41140;BME280;26881;48.784;9.192;2023-04-08T05:45:22;98944.13;;;8.32;89.30
41140;BME280;26881;48.784;9.192;2023-04-08T05:50:44;98945.47;;;8.42;88.12
41140;BME280;26881;48.784;9.192;2023-04-08T05:56:08;98951.16;;;8.30;89.00
41140;BME280;26881;48.784;9.192;2023-04-08T06:01:30;98946.41;;;8.39;88.81
41140;BME280;26881;48.784;9.192;2023-04-08T06:06:52;98961.34;;;8.56;87.48
41140;BME280;26881;48.784;9.192;2023-04-08T06:12:14;98958.88;;;8.53;87.72
41140;BME280;26881;48.784;9.192;2023-04-08T06:17:36;98963.72;;;8.42;88.49
41140;BME280;26881;48.784;9.192;2023-04-08T06:22:58;98977.47;;;8.64;87.60
41140;BME280;26881;48.784;9.192;2023-04-08T06:28:20;98978.81;;;8.54;87.89
41140;BME280;26881;48.784;9.192;2023-04-08T06:33:42;98976.44;;;8.48;86.92
41140;BME280;26881;48.784;9.192;2023-04-08T06:39:04;98977.56;;;8.63;87.88
41140;BME280;26881;48.784;9.192;2023-04-08T06:44:26;98974.00;;;8.64;87.08
41140;BME280;26881;48.784;9.192;2023-04-08T06:49:47;98984.19;;;8.70;87.42
41140;BME280;26881;48.784;9.192;2023-04-08T06:55:09;98989.94;;;8.58;86.89
41140;BME280;26881;48.784;9.192;2023-04-08T07:00:31;98995.66;;;8.66;87.12
41140;BME280;26881;48.784;9.192;2023-04-08T07:05:53;98997.63;;;8.61;86.55
41140;BME280;26881;48.784;9.192;2023-04-08T07:11:14;99009.28;;;8.73;86.05
41140;BME280;26881;48.784;9.192;2023-04-08T07:16:36;99007.44;;;8.75;84.91
41140;BME280;26881;48.784;9.192;2023-04-08T07:21:58;99015.28;;;8.75;84.93
41140;BME280;26881;48.784;9.192;2023-04-08T07:27:20;99012.25;;;8.84;85.52
41140;BME280;26881;48.784;9.192;2023-04-08T07:32:42;99009.28;;;8.92;84.80
41140;BME280;26881;48.784;9.192;2023-04-08T07:38:03;99012.53;;;8.97;84.11
41140;BME280;26881;48.784;9.192;2023-04-08T07:43:30;99020.09;;;9.03;82.44
41140;BME280;26881;48.784;9.192;2023-04-08T07:48:52;99023.53;;;9.03;82.56
41140;BME280;26881;48.784;9.192;2023-04-08T07:54:14;99026.34;;;9.18;81.53
41140;BME280;26881;48.784;9.192;2023-04-08T07:59:37;99027.34;;;9.15;80.66
41140;BME280;26881;48.784;9.192;2023-04-08T08:05:00;99020.44;;;9.14;81.28
41140;BME280;26881;48.784;9.192;2023-04-08T08:10:22;99031.09;;;9.28;80.22
41140;BME280;26881;48.784;9.192;2023-04-08T08:15:43;99033.19;;;9.39;79.17
41140;BME280;26881;48.784;9.192;2023-04-08T08:21:06;99038.53;;;9.55;78.32
41140;BME280;26881;48.784;9.192;2023-04-08T08:26:28;99034.94;;;9.58;77.62
41140;BME280;26881;48.784;9.192;2023-04-08T08:31:50;99046.38;;;9.55;77.51
41140;BME280;26881;48.784;9.192;2023-04-08T08:37:12;99044.53;;;9.57;77.96
41140;BME280;26881;48.784;9.192;2023-04-08T08:42:33;99049.59;;;9.79;77.14
41140;BME280;26881;48.784;9.192;2023-04-08T08:47:55;99059.09;;;9.63;75.78
41140;BME280;26881;48.784;9.192;2023-04-08T08:53:18;99047.25;;;9.73;75.41
41140;BME280;26881;48.784;9.192;2023-04-08T08:58:43;99056.78;;;9.93;74.64
41140;BME280;26881;48.784;9.192;2023-04-08T09:04:13;99060.53;;;10.05;72.61
41140;BME280;26881;48.784;9.192;2023-04-08T09:09:47;99063.63;;;10.13;71.25
41140;BME280;26881;48.784;9.192;2023-04-08T09:15:09;99060.00;;;10.16;71.25
41140;BME280;26881;48.784;9.192;2023-04-08T09:20:31;99073.44;;;10.25;67.80
41140;BME280;26881;48.784;9.192;2023-04-08T09:26:01;99068.31;;;10.24;67.60
41140;BME280;26881;48.784;9.192;2023-04-08T09:31:30;99067.56;;;10.22;66.46
41140;BME280;26881;48.784;9.192;2023-04-08T09:36:53;99072.44;;;10.28;65.85
41140;BME280;26881;48.784;9.192;2023-04-08T09:42:17;99066.44;;;10.45;64.80
41140;BME280;26881;48.784;9.192;2023-04-08T09:47:51;99067.47;;;10.58;61.83
41140;BME280;26881;48.784;9.192;2023-04-08T09:53:18;99068.59;;;10.54;58.31
41140;BME280;26881;48.784;9.192;2023-04-08T09:58:59;99067.56;;;10.57;60.10
41140;BME280;26881;48.784;9.192;2023-04-08T10:04:24;99074.78;;;10.86;59.23
41140;BME280;26881;48.784;9.192;2023-04-08T10:09:47;99062.16;;;11.10;58.62
41140;BME280;26881;48.784;9.192;2023-04-08T10:15:33;99068.69;;;11.35;58.07
41140;BME280;26881;48.784;9.192;2023-04-08T10:20:56;99066.72;;;11.23;55.07
41140;BME280;26881;48.784;9.192;2023-04-08T10:26:30;99064.94;;;11.07;56.22
41140;BME280;26881;48.784;9.192;2023-04-08T10:31:54;99058.84;;;11.07;54.96
41140;BME280;26881;48.784;9.192;2023-04-08T10:37:18;99062.13;;;10.94;54.96
41140;BME280;26881;48.784;9.192;2023-04-08T10:42:39;99057.13;;;10.90;55.45
41140;BME280;26881;48.784;9.192;2023-04-08T10:48:23;99072.91;;;10.88;53.91
41140;BME280;26881;48.784;9.192;2023-04-08T10:53:45;99070.03;;;10.77;54.10
41140;BME280;26881;48.784;9.192;2023-04-08T10:59:07;99071.63;;;10.62;55.06
41140;BME280;26881;48.784;9.192;2023-04-08T11:04:29;99068.78;;;10.67;52.42
41140;BME280;26881;48.784;9.192;2023-04-08T11:09:51;99064.63;;;10.63;51.17
41140;BME280;26881;48.784;9.192;2023-04-08T11:15:12;99071.63;;;10.62;51.84
41140;BME280;26881;48.784;9.192;2023-04-08T11:20:35;99068.13;;;10.63;52.58
41140;BME280;26881;48.784;9.192;2023-04-08T11:25:57;99062.91;;;10.79;52.11
41140;BME280;26881;48.784;9.192;2023-04-08T11:31:20;99057.84;;;10.76;52.07
41140;BME280;26881;48.784;9.192;2023-04-08T11:36:45;99060.22;;;10.81;51.50
41140;BME280;26881;48.784;9.192;2023-04-08T11:42:07;99066.63;;;10.75;52.26
41140;BME280;26881;48.784;9.192;2023-04-08T11:47:32;99060.41;;;10.78;52.31
41140;BME280;26881;48.784;9.192;2023-04-08T11:52:54;99059.63;;;10.75;52.81
41140;BME280;26881;48.784;9.192;2023-04-08T11:58:17;99061.53;;;10.72;53.26
41140;BME280;26881;48.784;9.192;2023-04-08T12:03:52;99063.00;;;10.78;52.91
41140;BME280;26881;48.784;9.192;2023-04-08T12:09:15;99059.25;;;10.66;52.52
41140;BME280;26881;48.784;9.192;2023-04-08T12:14:37;99064.03;;;10.58;55.33
41140;BME280;26881;48.784;9.192;2023-04-08T12:19:59;99064.50;;;10.66;55.00
41140;BME280;26881;48.784;9.192;2023-04-08T12:25:21;99065.31;;;10.66;54.63
41140;BME280;26881;48.784;9.192;2023-04-08T12:30:43;99073.19;;;10.66;55.04
41140;BME280;26881;48.784;9.192;2023-04-08T12:36:05;99067.06;;;10.83;53.43
41140;BME280;26881;48.784;9.192;2023-04-08T12:41:26;99068.47;;;10.73;53.29
41140;BME280;26881;48.784;9.192;2023-04-08T12:46:48;99071.75;;;10.76;53.73
41140;BME280;26881;48.784;9.192;2023-04-08T12:52:10;99064.44;;;10.83;53.86
41140;BME280;26881;48.784;9.192;2023-04-08T12:57:31;99066.69;;;10.91;53.63
41140;BME280;26881;48.784;9.192;2023-04-08T13:02:53;99060.75;;;10.87;54.18
41140;BME280;26881;48.784;9.192;2023-04-08T13:08:15;99060.28;;;10.79;54.15
41140;BME280;26881;48.784;9.192;2023-04-08T13:13:38;99065.28;;;10.84;55.03
41140;BME280;26881;48.784;9.192;2023-04-08T13:19:00;99062.59;;;10.85;54.73
41140;BME280;26881;48.784;9.192;2023-04-08T13:24:22;99064.44;;;10.83;55.10
41140;BME280;26881;48.784;9.192;2023-04-08T13:29:44;99063.31;;;10.89;55.38
41140;BME280;26881;48.784;9.192;2023-04-08T13:35:06;99072.22;;;10.85;55.65
41140;BME280;26881;48.784;9.192;2023-04-08T13:40:27;99063.13;;;10.92;55.63
41140;BME280;26881;48.784;9.192;2023-04-08T13:45:49;99064.06;;;10.91;56.04
41140;BME280;26881;48.784;9.192;2023-04-08T13:51:11;99053.31;;;10.80;55.82
41140;BME280;26881;48.784;9.192;2023-04-08T13:56:33;99056.94;;;10.77;56.73
41140;BME280;26881;48.784;9.192;2023-04-08T14:01:54;99056.56;;;11.01;56.82
41140;BME280;26881;48.784;9.192;2023-04-08T14:07:16;99061.28;;;10.94;56.49
41140;BME280;26881;48.784;9.192;2023-04-08T14:12:39;99059.25;;;10.99;55.78
41140;BME280;26881;48.784;9.192;2023-04-08T14:18:01;99054.63;;;11.04;56.39
41140;BME280;26881;48.784;9.192;2023-04-08T14:23:23;99064.94;;;11.07;56.03
41140;BME280;26881;48.784;9.192;2023-04-08T14:28:44;99055.06;;;11.12;55.26
41140;BME280;26881;48.784;9.192;2023-04-08T14:34:08;99066.78;;;11.05;56.43
41140;BME280;26881;48.784;9.192;2023-04-08T14:39:29;99059.59;;;11.09;55.95
41140;BME280;26881;48.784;9.192;2023-04-08T14:44:51;99060.63;;;11.06;56.05
41140;BME280;26881;48.784;9.192;2023-04-08T14:50:13;99069.06;;;11.11;56.09
41140;BME280;26881;48.784;9.192;2023-04-08T14:55:34;99067.91;;;11.17;55.75
41140;BME280;26881;48.784;9.192;2023-04-08T15:00:56;99070.19;;;11.23;55.27
41140;BME280;26881;48.784;9.192;2023-04-08T15:06:18;99074.94;;;11.16;54.25
41140;BME280;26881;48.784;9.192;2023-04-08T15:11:42;99078.03;;;11.07;54.13
41140;BME280;26881;48.784;9.192;2023-04-08T15:17:03;99082.31;;;11.08;54.74
41140;BME280;26881;48.784;9.192;2023-04-08T15:22:25;99082.41;;;11.07;54.30
41140;BME280;26881;48.784;9.192;2023-04-08T15:27:47;99082.63;;;11.02;54.63
41140;BME280;26881;48.784;9.192;2023-04-08T15:33:09;99087.97;;;11.01;54.30
41140;BME280;26881;48.784;9.192;2023-04-08T15:38:31;99091.38;;;11.03;55.67
41140;BME280;26881;48.784;9.192;2023-04-08T15:43:54;99094.88;;;11.02;55.96
41140;BME280;26881;48.784;9.192;2023-04-08T15:49:16;99090.22;;;10.91;56.47
41140;BME280;26881;48.784;9.192;2023-04-08T15:54:37;99097.16;;;10.92;56.53
41140;BME280;26881;48.784;9.192;2023-04-08T15:59:59;99099.47;;;10.98;57.24
41140;BME280;26881;48.784;9.192;2023-04-08T16:05:21;99097.91;;;10.94;57.64
41140;BME280;26881;48.784;9.192;2023-04-08T16:10:43;99108.56;;;10.91;57.78
41140;BME280;26881;48.784;9.192;2023-04-08T16:16:05;99107.91;;;10.86;57.72
41140;BME280;26881;48.784;9.192;2023-04-08T16:21:27;99113.78;;;10.91;57.67
41140;BME280;26881;48.784;9.192;2023-04-08T16:26:49;99115.94;;;10.83;57.60
41140;BME280;26881;48.784;9.192;2023-04-08T16:32:11;99122.84;;;10.84;57.90
41140;BME280;26881;48.784;9.192;2023-04-08T16:37:32;99129.63;;;10.88;58.88
41140;BME280;26881;48.784;9.192;2023-04-08T16:42:55;99133.47;;;10.81;58.75
41140;BME280;26881;48.784;9.192;2023-04-08T16:48:17;99135.13;;;10.66;59.67
41140;BME280;26881;48.784;9.192;2023-04-08T16:53:39;99144.56;;;10.68;60.01
41140;BME280;26881;48.784;9.192;2023-04-08T16:59:01;99152.59;;;10.65;59.80
41140;BME280;26881;48.784;9.192;2023-04-08T17:04:23;99149.78;;;10.51;60.06
41140;BME280;26881;48.784;9.192;2023-04-08T17:09:48;99150.66;;;10.51;60.39
41140;BME280;26881;48.784;9.192;2023-04-08T17:15:11;99154.41;;;10.46;61.03
41140;BME280;26881;48.784;9.192;2023-04-08T17:20:33;99162.88;;;10.51;61.64
41140;BME280;26881;48.784;9.192;2023-04-08T17:25:55;99163.97;;;10.47;61.25
41140;BME280;26881;48.784;9.192;2023-04-08T17:31:17;99166.47;;;10.48;61.85
41140;BME280;26881;48.784;9.192;2023-04-08T17:36:39;99167.63;;;10.43;61.33
41140;BME280;26881;48.784;9.192;2023-04-08T17:42:01;99183.16;;;10.46;62.32
41140;BME280;26881;48.784;9.192;2023-04-08T17:47:23;99184.88;;;10.47;62.10
41140;BME280;26881;48.784;9.192;2023-04-08T17:52:44;99191.00;;;10.46;62.33
41140;BME280;26881;48.784;9.192;2023-04-08T17:58:09;99191.13;;;10.44;62.43
41140;BME280;26881;48.784;9.192;2023-04-08T18:03:31;99198.41;;;10.38;62.50
41140;BME280;26881;48.784;9.192;2023-04-08T18:08:53;99193.88;;;10.22;62.45
41140;BME280;26881;48.784;9.192;2023-04-08T18:14:15;99200.81;;;10.23;62.89
41140;BME280;26881;48.784;9.192;2023-04-08T18:19:37;99204.94;;;10.27;62.93
41140;BME280;26881;48.784;9.192;2023-04-08T18:24:58;99213.16;;;10.20;63.32
41140;BME280;26881;48.784;9.192;2023-04-08T18:30:20;99228.50;;;10.08;62.53
41140;BME280;26881;48.784;9.192;2023-04-08T18:35:42;99236.34;;;10.08;62.49
41140;BME280;26881;48.784;9.192;2023-04-08T18:41:04;99234.66;;;10.07;63.09
41140;BME280;26881;48.784;9.192;2023-04-08T18:46:26;99243.47;;;10.05;64.03
41140;BME280;26881;48.784;9.192;2023-04-08T18:51:48;99251.38;;;10.03;64.88
41140;BME280;26881;48.784;9.192;2023-04-08T18:57:22;99251.66;;;9.97;64.38
41140;BME280;26881;48.784;9.192;2023-04-08T19:02:44;99267.91;;;10.04;64.65
41140;BME280;26881;48.784;9.192;2023-04-08T19:08:05;99264.66;;;9.99;63.98
41140;BME280;26881;48.784;9.192;2023-04-08T19:13:27;99280.91;;;10.05;64.16
41140;BME280;26881;48.784;9.192;2023-04-08T19:18:49;99282.72;;;9.84;65.51
41140;BME280;26881;48.784;9.192;2023-04-08T19:24:11;99281.56;;;9.71;65.51
41140;BME280;26881;48.784;9.192;2023-04-08T19:29:33;99285.22;;;9.67;66.14
41140;BME280;26881;48.784;9.192;2023-04-08T19:34:55;99287.97;;;9.64;65.61
41140;BME280;26881;48.784;9.192;2023-04-08T19:40:17;99287.47;;;9.56;66.10
41140;BME280;26881;48.784;9.192;2023-04-08T19:45:40;99292.75;;;9.75;65.13
41140;BME280;26881;48.784;9.192;2023-04-08T19:51:02;99306.13;;;9.67;65.26
41140;BME280;26881;48.784;9.192;2023-04-08T19:56:24;99304.00;;;9.56;65.44
41140;BME280;26881;48.784;9.192;2023-04-08T20:01:46;99297.50;;;9.65;66.24
41140;BME280;26881;48.784;9.192;2023-04-08T20:07:08;99292.00;;;9.71;65.87
41140;BME280;26881;48.784;9.192;2023-04-08T20:12:30;99300.31;;;9.60;66.59
41140;BME280;26881;48.784;9.192;2023-04-08T20:17:52;99303.00;;;9.59;66.77
41140;BME280;26881;48.784;9.192;2023-04-08T20:23:14;99301.38;;;9.56;66.75
41140;BME280;26881;48.784;9.192;2023-04-08T20:28:38;99304.88;;;9.55;66.73
41140;BME280;26881;48.784;9.192;2023-04-08T20:34:00;99313.16;;;9.65;65.81
41140;BME280;26881;48.784;9.192;2023-04-08T20:39:23;99307.31;;;9.60;66.51
41140;BME280;26881;48.784;9.192;2023-04-08T20:44:50;99305.75;;;9.56;67.01
41140;BME280;26881;48.784;9.192;2023-04-08T20:50:12;99306.91;;;9.48;67.46
41140;BME280;26881;48.784;9.192;2023-04-08T20:55:34;99303.66;;;9.43;67.25
41140;BME280;26881;48.784;9.192;2023-04-08T21:00:56;99306.72;;;9.33;67.23
41140;BME280;26881;48.784;9.192;2023-04-08T21:06:19;99301.56;;;9.31;67.40
41140;BME280;26881;48.784;9.192;2023-04-08T21:11:41;99307.03;;;9.25;67.51
41140;BME280;26881;48.784;9.192;2023-04-08T21:17:02;99306.06;;;9.27;67.89
41140;BME280;26881;48.784;9.192;2023-04-08T21:22:24;99303.78;;;9.20;67.74
41140;BME280;26881;48.784;9.192;2023-04-08T21:27:46;99300.31;;;9.19;67.95
41140;BME280;26881;48.784;9.192;2023-04-08T21:33:08;99303.50;;;9.05;68.34
41140;BME280;26881;48.784;9.192;2023-04-08T21:38:29;99304.81;;;8.95;68.85
41140;BME280;26881;48.784;9.192;2023-04-08T21:43:51;99301.22;;;8.76;69.79
41140;BME280;26881;48.784;9.192;2023-04-08T21:49:14;99296.69;;;8.59;71.08
41140;BME280;26881;48.784;9.192;2023-04-08T21:54:36;99296.44;;;8.65;70.52
41140;BME280;26881;48.784;9.192;2023-04-08T21:59:57;99299.91;;;8.65;71.13
41140;BME280;26881;48.784;9.192;2023-04-08T22:05:19;99296.38;;;8.67;71.03
41140;BME280;26881;48.784;9.192;2023-04-08T22:10:41;99304.28;;;8.65;71.09
41140;BME280;26881;48.784;9.192;2023-04-08T22:16:03;99297.81;;;8.52;72.09
41140;BME280;26881;48.784;9.192;2023-04-08T22:21:25;99300.91;;;8.61;71.48
41140;BME280;26881;48.784;9.192;2023-04-08T22:26:47;99289.88;;;8.55;71.94
41140;BME280;26881;48.784;9.192;2023-04-08T22:32:08;99289.09;;;8.53;71.78
41140;BME280;26881;48.784;9.192;2023-04-08T22:37:31;99289.66;;;8.61;71.60
41140;BME280;26881;48.784;9.192;2023-04-08T22:42:52;99287.88;;;8.61;71.24
41140;BME280;26881;48.784;9.192;2023-04-08T22:48:14;99296.50;;;8.63;70.77
41140;BME280;26881;48.784;9.192;2023-04-08T22:53:36;99289.59;;;8.62;70.99
41140;BME280;26881;48.784;9.192;2023-04-08T22:58:58;99288.81;;;8.60;71.62
41140;BME280;26881;48.784;9.192;2023-04-08T23:04:20;99282.91;;;8.55;72.11
41140;BME280;26881;48.784;9.192;2023-04-08T23:09:41;99284.47;;;8.59;72.15
41140;BME280;26881;48.784;9.192;2023-04-08T23:15:03;99288.91;;;8.57;71.86
41140;BME280;26881;48.784;9.192;2023-04-08T23:20:25;99289.69;;;8.59;71.87
41140;BME280;26881;48.784;9.192;2023-04-08T23:25:47;99284.38;;;8.62;72.00
41140;BME280;26881;48.784;9.192;2023-04-08T23:31:08;99288.91;;;8.57;72.48
41140;BME280;26881;48.784;9.192;2023-04-08T23:36:30;99283.06;;;8.51;72.81
41140;BME280;26881;48.784;9.192;2023-04-08T23:41:52;99294.19;;;8.56;72.96
41140;BME280;26881;48.784;9.192;2023-04-08T23:47:14;99286.41;;;8.32;74.17
41140;BME280;26881;48.784;9.192;2023-04-08T23:52:36;99283.34;;;8.44;73.78
41140;BME280;26881;48.784;9.192;2023-04-08T23:57:57;99284.84;;;8.50;73.74
